Time;durP1;ratioP1;P1;durP2;ratioP2;P2;SDS_P1;SDS_P2;PMS_P1;PMS_P2;Temp;Humidity;BMP_temperature;BMP_pressure;BME280_temperature;BME280_humidity;BME280_pressure;Samples;Min_cycle;Max_cycle;Signal;HPM_P1;HPM_P2
2021/10/22 00:00:06;;;;;;;0.20;0.20;;;7.00;99.90;;;;;;5049026;28;20242;-81
2021/10/22 00:02:31;;;;;;;0.10;0.10;;;6.90;99.90;;;;;;5046938;28;20189;-80
2021/10/22 00:04:57;;;;;;;0.10;0.10;;;6.90;99.90;;;;;;5049503;28;20222;-80
2021/10/22 00:07:23;;;;;;;0.07;0.07;;;6.80;99.90;;;;;;5058124;28;20332;-80
2021/10/22 00:09:48;;;;;;;3.30;0.10;;;6.80;99.90;;;;;;5052744;28;20193;-80
2021/10/22 00:12:14;;;;;;;0.10;0.10;;;6.80;99.90;;;;;;5060102;28;20188;-80
2021/10/22 00:14:40;;;;;;;0.10;0.10;;;6.90;99.90;;;;;;5057803;28;20218;-80
2021/10/22 00:17:05;;;;;;;0.20;0.20;;;6.80;99.90;;;;;;5060857;28;20223;-80
2021/10/22 00:19:32;;;;;;;0.10;0.10;;;6.80;99.90;;;;;;5054151;28;20197;-80
2021/10/22 00:21:59;;;;;;;0.10;0.10;;;6.80;99.90;;;;;;5057365;28;20181;-80
2021/10/22 00:24:25;;;;;;;0.10;0.10;;;6.80;99.90;;;;;;5056563;28;20216;-80
2021/10/22 00:26:50;;;;;;;0.20;0.13;;;6.70;99.90;;;;;;5059992;28;20241;-81
2021/10/22 00:29:16;;;;;;;0.97;0.40;;;6.70;99.90;;;;;;5057326;28;20288;-80
2021/10/22 00:31:42;;;;;;;0.10;0.10;;;6.70;99.90;;;;;;5057304;28;20189;-80
2021/10/22 00:34:07;;;;;;;0.37;0.20;;;6.70;99.90;;;;;;5052621;28;20273;-81
2021/10/22 00:36:35;;;;;;;0.37;0.30;;;6.60;99.90;;;;;;5064721;28;20353;-81
2021/10/22 00:39:00;;;;;;;0.13;0.13;;;6.60;99.90;;;;;;5053293;28;20182;-81
2021/10/22 00:41:27;;;;;;;0.20;0.20;;;6.60;99.90;;;;;;5063507;28;20218;-81
2021/10/22 00:43:52;;;;;;;0.10;0.10;;;6.50;99.90;;;;;;5057171;28;20188;-80
2021/10/22 00:46:18;;;;;;;0.67;0.50;;;6.40;99.90;;;;;;5061135;28;20201;-81
2021/10/22 00:48:44;;;;;;;0.20;0.10;;;6.50;99.90;;;;;;5055776;28;20678;-80
2021/10/22 00:51:12;;;;;;;0.33;0.33;;;6.50;99.90;;;;;;5051870;28;20214;-80
2021/10/22 00:53:39;;;;;;;0.10;0.10;;;6.40;99.90;;;;;;5050501;28;20190;-80
2021/10/22 00:56:07;;;;;;;0.13;0.10;;;6.40;99.90;;;;;;5050312;28;20205;-80
2021/10/22 00:58:34;;;;;;;0.27;0.27;;;6.30;99.90;;;;;;5062917;28;20208;-81
2021/10/22 01:01:00;;;;;;;0.10;0.10;;;6.30;99.90;;;;;;5044933;28;20185;-80
2021/10/22 01:03:25;;;;;;;0.93;0.93;;;6.30;99.90;;;;;;5050648;28;20758;-80
2021/10/22 01:05:51;;;;;;;0.10;0.10;;;6.40;99.90;;;;;;5059793;28;20613;-81
2021/10/22 01:08:17;;;;;;;0.20;0.20;;;6.40;99.90;;;;;;5059571;28;20271;-81
2021/10/22 01:10:43;;;;;;;0.33;0.33;;;6.40;99.90;;;;;;5058430;28;20303;-80
2021/10/22 01:13:09;;;;;;;0.20;0.20;;;6.40;99.90;;;;;;5065149;28;20248;-81
2021/10/22 01:15:35;;;;;;;0.10;0.10;;;6.40;99.90;;;;;;5048447;28;20212;-81
2021/10/22 01:18:02;;;;;;;0.33;0.20;;;6.40;99.90;;;;;;5066655;28;20706;-80
2021/10/22 01:20:28;;;;;;;0.00;0.00;;;6.40;99.90;;;;;;5064502;28;20625;-81
2021/10/22 01:22:55;;;;;;;1.30;0.37;;;6.40;99.90;;;;;;5064650;28;20243;-81
2021/10/22 01:25:24;;;;;;;0.13;0.13;;;6.40;99.90;;;;;;5061754;28;20189;-80
2021/10/22 01:27:50;;;;;;;0.10;0.10;;;6.40;99.90;;;;;;5055071;28;20221;-80
2021/10/22 01:30:18;;;;;;;0.10;0.10;;;6.40;99.90;;;;;;5045713;28;20202;-80
2021/10/22 01:32:45;;;;;;;0.10;0.10;;;6.40;99.90;;;;;;5061639;28;20190;-80
2021/10/22 01:35:11;;;;;;;0.10;0.10;;;6.40;99.90;;;;;;5065722;28;20211;-80
2021/10/22 01:37:38;;;;;;;0.10;0.10;;;6.30;99.90;;;;;;5059321;28;20215;-81
2021/10/22 01:40:06;;;;;;;0.93;0.93;;;6.30;99.90;;;;;;5061645;28;20277;-80
2021/10/22 01:42:31;;;;;;;0.10;0.10;;;6.30;99.90;;;;;;5062594;28;20182;-80
2021/10/22 01:44:57;;;;;;;0.20;0.20;;;6.20;99.90;;;;;;5056873;28;20181;-81
2021/10/22 01:47:23;;;;;;;0.20;0.20;;;6.30;99.90;;;;;;5070491;28;20204;-80
2021/10/22 01:49:50;;;;;;;1.20;0.60;;;6.20;99.90;;;;;;5049111;28;20193;-81
2021/10/22 01:52:15;;;;;;;0.20;0.20;;;6.20;99.90;;;;;;5049923;28;20182;-81
2021/10/22 01:54:41;;;;;;;0.47;0.47;;;6.20;99.90;;;;;;5042316;28;20186;-81
2021/10/22 01:57:10;;;;;;;0.10;0.10;;;6.20;99.90;;;;;;5065178;28;20695;-82
2021/10/22 01:59:35;;;;;;;0.10;0.10;;;6.10;99.90;;;;;;5088063;28;20231;-80
2021/10/22 02:02:01;;;;;;;0.10;0.10;;;6.10;99.90;;;;;;5061440;28;20184;-80
2021/10/22 02:04:27;;;;;;;0.20;0.20;;;6.10;99.90;;;;;;5052918;28;20354;-80
2021/10/22 02:06:52;;;;;;;0.20;0.20;;;6.10;99.90;;;;;;5065370;28;20662;-80
2021/10/22 02:09:18;;;;;;;0.20;0.20;;;6.10;99.90;;;;;;5061460;28;20189;-81
2021/10/22 02:11:45;;;;;;;0.10;0.10;;;6.00;99.90;;;;;;5063161;28;20196;-80
2021/10/22 02:14:11;;;;;;;2.57;0.97;;;6.10;99.90;;;;;;5056663;28;20199;-81
2021/10/22 02:16:37;;;;;;;0.40;0.40;;;6.10;99.90;;;;;;5059883;28;20579;-80
2021/10/22 02:19:03;;;;;;;0.20;0.20;;;6.10;99.90;;;;;;5055524;28;20177;-81
2021/10/22 02:21:29;;;;;;;0.00;0.00;;;6.10;99.90;;;;;;5061457;28;20189;-81
2021/10/22 02:23:55;;;;;;;0.10;0.10;;;6.10;99.90;;;;;;5059760;28;20197;-80
2021/10/22 02:26:21;;;;;;;0.00;0.00;;;6.10;99.90;;;;;;5063255;28;20246;-80
2021/10/22 02:28:46;;;;;;;1.93;0.23;;;6.20;99.90;;;;;;5067504;28;20694;-80
2021/10/22 02:31:12;;;;;;;0.17;0.17;;;6.20;99.90;;;;;;5046216;28;20235;-80
2021/10/22 02:33:38;;;;;;;0.07;0.07;;;6.20;99.90;;;;;;5058128;28;20186;-80
2021/10/22 02:36:04;;;;;;;0.10;0.10;;;6.20;99.90;;;;;;5050844;28;20250;-80
2021/10/22 02:38:30;;;;;;;6.00;0.27;;;6.20;99.90;;;;;;5060431;28;20210;-81
2021/10/22 02:40:56;;;;;;;0.10;0.10;;;6.30;99.90;;;;;;5049288;28;20269;-80
2021/10/22 02:43:21;;;;;;;0.30;0.30;;;6.20;99.90;;;;;;5062094;28;20243;-81
2021/10/22 02:45:47;;;;;;;7.67;0.63;;;6.30;99.90;;;;;;5055447;28;20681;-80
2021/10/22 02:48:12;;;;;;;0.10;0.10;;;6.30;99.90;;;;;;5052473;28;20290;-81
2021/10/22 02:50:38;;;;;;;0.00;0.00;;;6.30;99.90;;;;;;5045914;28;20200;-81
2021/10/22 02:53:04;;;;;;;0.67;0.67;;;6.30;99.90;;;;;;5053862;28;20181;-81
2021/10/22 02:55:29;;;;;;;0.10;0.10;;;6.20;99.90;;;;;;5049834;28;20203;-81
2021/10/22 02:57:55;;;;;;;0.00;0.00;;;6.20;99.90;;;;;;5055159;28;20232;-80
2021/10/22 03:00:21;;;;;;;0.77;0.30;;;6.20;99.90;;;;;;5052101;28;20301;-81
2021/10/22 03:02:47;;;;;;;0.63;0.30;;;6.20;99.90;;;;;;5052953;28;20808;-80
2021/10/22 03:05:14;;;;;;;0.23;0.20;;;6.20;99.90;;;;;;5057935;28;20192;-81
2021/10/22 03:07:39;;;;;;;0.10;0.10;;;6.20;99.90;;;;;;5064807;28;20307;-80
2021/10/22 03:10:07;;;;;;;0.70;0.17;;;6.10;99.90;;;;;;5062649;28;20672;-81
2021/10/22 03:12:35;;;;;;;0.10;0.10;;;6.10;99.90;;;;;;5065234;28;20181;-80
2021/10/22 03:15:01;;;;;;;0.07;0.07;;;6.10;99.90;;;;;;5052785;28;20230;-80
2021/10/22 03:17:27;;;;;;;0.30;0.30;;;6.10;99.90;;;;;;5056217;28;20203;-80
2021/10/22 03:19:52;;;;;;;0.20;0.20;;;6.00;99.90;;;;;;5061656;28;20182;-81
2021/10/22 03:22:18;;;;;;;0.20;0.20;;;6.00;99.90;;;;;;5057442;28;20600;-81
2021/10/22 03:24:43;;;;;;;0.40;0.20;;;6.00;99.90;;;;;;5050256;28;20205;-80
2021/10/22 03:27:14;;;;;;;0.20;0.20;;;6.00;99.90;;;;;;5061480;28;20221;-80
2021/10/22 03:29:40;;;;;;;0.10;0.10;;;6.00;99.90;;;;;;5060961;28;20674;-80
2021/10/22 03:32:06;;;;;;;0.50;0.10;;;6.00;99.90;;;;;;5054351;28;20193;-80
2021/10/22 03:34:32;;;;;;;0.10;0.10;;;6.00;99.90;;;;;;5059018;28;20204;-81
2021/10/22 03:36:58;;;;;;;0.10;0.10;;;6.00;99.90;;;;;;5067170;28;20210;-80
2021/10/22 03:39:23;;;;;;;0.20;0.20;;;6.00;99.90;;;;;;5058112;28;20182;-80
2021/10/22 03:41:49;;;;;;;0.10;0.10;;;5.90;99.90;;;;;;5063241;28;20193;-80
2021/10/22 03:44:15;;;;;;;3.40;0.30;;;5.90;99.90;;;;;;5055974;28;20189;-80
2021/10/22 03:46:40;;;;;;;0.20;0.20;;;5.90;99.90;;;;;;5058709;28;20192;-80
2021/10/22 03:49:06;;;;;;;2.57;0.57;;;5.80;99.90;;;;;;5055970;28;20302;-82
2021/10/22 03:51:32;;;;;;;1.33;0.50;;;5.90;99.90;;;;;;5062030;28;20183;-81
2021/10/22 03:53:58;;;;;;;0.13;0.13;;;5.80;99.90;;;;;;5056637;28;20550;-80
2021/10/22 03:56:24;;;;;;;0.10;0.10;;;5.80;99.90;;;;;;5043943;28;20203;-80
2021/10/22 03:58:49;;;;;;;0.60;0.60;;;5.70;99.90;;;;;;5060362;28;20197;-80
2021/10/22 04:01:15;;;;;;;0.27;0.20;;;5.70;99.90;;;;;;5047744;28;20195;-80
2021/10/22 04:03:41;;;;;;;0.10;0.10;;;5.60;99.90;;;;;;5053753;28;20261;-80
2021/10/22 04:06:07;;;;;;;0.10;0.10;;;5.70;99.90;;;;;;5057972;28;20203;-80
2021/10/22 04:08:33;;;;;;;0.30;0.30;;;5.60;99.90;;;;;;5049243;28;20205;-80
2021/10/22 04:10:58;;;;;;;0.00;0.00;;;5.70;99.90;;;;;;5039983;28;20272;-80
2021/10/22 04:13:24;;;;;;;0.10;0.10;;;5.60;99.90;;;;;;5050338;28;20598;-80
2021/10/22 04:15:50;;;;;;;0.07;0.07;;;5.60;99.90;;;;;;5059236;28;20204;-80
2021/10/22 04:18:16;;;;;;;0.53;0.40;;;5.60;99.90;;;;;;5057814;28;20243;-80
2021/10/22 04:20:42;;;;;;;0.00;0.00;;;5.60;99.90;;;;;;5064368;28;20183;-80
2021/10/22 04:23:08;;;;;;;0.20;0.20;;;5.60;99.90;;;;;;5043917;28;20224;-80
2021/10/22 04:25:34;;;;;;;0.10;0.10;;;5.50;99.90;;;;;;5060339;28;20210;-80
2021/10/22 04:28:01;;;;;;;0.13;0.13;;;5.50;99.90;;;;;;5058855;28;20205;-80
2021/10/22 04:30:27;;;;;;;0.10;0.10;;;5.50;99.90;;;;;;5052600;28;20197;-80
2021/10/22 04:32:52;;;;;;;0.10;0.10;;;5.50;99.90;;;;;;5060096;28;20181;-80
2021/10/22 04:35:18;;;;;;;1.67;0.90;;;5.50;99.90;;;;;;5058030;28;20208;-80
2021/10/22 04:40:41;;;;;;;1.03;1.03;;;5.40;99.90;;;;;;5044281;28;20185;-80
2021/10/22 04:43:16;;;;;;;0.20;0.13;;;5.40;99.90;;;;;;5042001;28;20208;-82
2021/10/22 04:45:43;;;;;;;6.80;0.30;;;5.40;99.90;;;;;;5073746;28;20185;-82
2021/10/22 04:48:11;;;;;;;0.10;0.10;;;5.30;99.90;;;;;;5052526;28;20280;-81
2021/10/22 04:50:44;;;;;;;0.30;0.20;;;5.30;99.90;;;;;;5051938;28;20199;-82
2021/10/22 04:53:10;;;;;;;0.17;0.17;;;5.30;99.90;;;;;;5062425;28;20184;-80
2021/10/22 04:55:39;;;;;;;0.10;0.10;;;5.30;99.90;;;;;;5054253;28;20208;-80
2021/10/22 04:58:08;;;;;;;0.70;0.70;;;5.30;99.90;;;;;;5062384;28;20286;-79
2021/10/22 05:00:34;;;;;;;0.73;0.20;;;5.20;99.90;;;;;;5042329;28;20270;-80
2021/10/22 05:03:00;;;;;;;0.30;0.30;;;5.20;99.90;;;;;;5054190;28;20593;-80
2021/10/22 05:05:26;;;;;;;0.13;0.13;;;5.20;99.90;;;;;;5046755;28;20202;-79
2021/10/22 05:07:51;;;;;;;0.50;0.30;;;5.20;99.90;;;;;;5063933;28;20637;-79
2021/10/22 05:10:17;;;;;;;0.10;0.10;;;5.20;99.90;;;;;;5052365;28;20187;-82
2021/10/22 05:12:43;;;;;;;0.10;0.10;;;5.20;99.90;;;;;;5044730;28;20207;-82
2021/10/22 05:15:09;;;;;;;0.27;0.10;;;5.10;99.90;;;;;;5050272;28;20219;-81
2021/10/22 05:17:36;;;;;;;0.30;0.30;;;5.20;99.90;;;;;;5044987;28;20205;-80
2021/10/22 05:20:05;;;;;;;0.20;0.20;;;5.10;99.90;;;;;;5056181;28;20273;-80
2021/10/22 05:22:31;;;;;;;0.20;0.20;;;5.10;99.90;;;;;;5042198;28;20237;-81
2021/10/22 05:24:57;;;;;;;0.20;0.20;;;5.20;99.90;;;;;;5047256;28;20222;-81
2021/10/22 05:27:23;;;;;;;0.10;0.10;;;5.20;99.90;;;;;;5040114;28;20670;-81
2021/10/22 05:29:48;;;;;;;0.20;0.20;;;5.20;99.90;;;;;;5046525;28;20188;-81
2021/10/22 05:32:14;;;;;;;0.20;0.20;;;5.20;99.90;;;;;;5036899;28;20243;-81
2021/10/22 05:34:40;;;;;;;0.00;0.00;;;5.20;99.90;;;;;;5039849;28;20181;-80
2021/10/22 05:37:05;;;;;;;0.17;0.17;;;5.20;99.90;;;;;;5043894;28;20213;-81
2021/10/22 05:39:31;;;;;;;0.00;0.00;;;5.20;99.90;;;;;;5039123;28;20208;-81
2021/10/22 05:41:57;;;;;;;0.40;0.20;;;5.20;99.90;;;;;;5073817;28;20182;-81
2021/10/22 05:44:23;;;;;;;0.10;0.10;;;5.30;99.90;;;;;;5049780;28;20182;-82
2021/10/22 05:46:52;;;;;;;0.00;0.00;;;5.20;99.90;;;;;;5054970;28;20211;-85
2021/10/22 05:49:19;;;;;;;0.13;0.13;;;5.30;99.90;;;;;;5055592;28;20195;-80
2021/10/22 05:51:45;;;;;;;0.10;0.10;;;5.20;99.90;;;;;;5047298;28;20183;-81
2021/10/22 05:54:11;;;;;;;0.40;0.40;;;5.20;99.90;;;;;;5044555;28;20191;-80
2021/10/22 05:56:36;;;;;;;2.27;0.57;;;5.20;99.90;;;;;;5047377;28;20215;-81
2021/10/22 05:59:02;;;;;;;0.67;0.67;;;5.20;99.90;;;;;;5050686;28;20177;-80
2021/10/22 06:01:27;;;;;;;0.30;0.30;;;5.20;99.90;;;;;;5057201;28;20180;-81
2021/10/22 06:03:53;;;;;;;0.10;0.10;;;5.30;99.90;;;;;;5046572;28;20196;-81
2021/10/22 06:06:19;;;;;;;0.30;0.30;;;5.30;99.90;;;;;;5040771;28;20204;-81
2021/10/22 06:08:44;;;;;;;0.10;0.10;;;5.30;99.90;;;;;;5056024;28;20208;-81
2021/10/22 06:11:11;;;;;;;0.00;0.00;;;5.30;99.90;;;;;;5065397;28;20199;-81
2021/10/22 06:13:41;;;;;;;0.17;0.17;;;5.20;99.90;;;;;;5055203;28;20210;-81
2021/10/22 06:16:07;;;;;;;0.10;0.10;;;5.30;99.90;;;;;;5048153;28;20915;-82
2021/10/22 06:18:34;;;;;;;0.50;0.23;;;5.30;99.90;;;;;;5043223;28;20641;-80
2021/10/22 06:21:09;;;;;;;2.00;0.80;;;5.40;99.90;;;;;;5045597;28;20227;-82
2021/10/22 06:23:54;;;;;;;0.20;0.20;;;5.40;99.90;;;;;;5040513;28;20685;-82
2021/10/22 06:26:23;;;;;;;1.10;0.87;;;5.40;99.90;;;;;;5046385;28;20192;-81
2021/10/22 06:28:50;;;;;;;0.13;0.13;;;5.50;99.90;;;;;;5053274;28;20221;-82
2021/10/22 06:31:15;;;;;;;0.10;0.10;;;5.50;99.90;;;;;;5061069;28;20188;-81
2021/10/22 06:33:41;;;;;;;0.10;0.10;;;5.50;99.90;;;;;;5054304;28;20195;-81
2021/10/22 06:36:07;;;;;;;0.20;0.20;;;5.60;99.90;;;;;;5055954;28;20209;-81
2021/10/22 06:38:33;;;;;;;0.10;0.10;;;5.70;99.90;;;;;;5063561;28;20237;-81
2021/10/22 06:41:00;;;;;;;0.60;0.30;;;5.70;99.90;;;;;;5057484;28;20176;-81
2021/10/22 06:43:26;;;;;;;0.10;0.10;;;5.80;99.90;;;;;;5075613;28;20181;-81
2021/10/22 06:45:52;;;;;;;0.30;0.30;;;5.90;99.90;;;;;;5054499;28;20196;-81
2021/10/22 06:48:18;;;;;;;4.03;0.67;;;6.00;99.90;;;;;;5051283;28;20214;-82
2021/10/22 06:50:45;;;;;;;0.50;0.50;;;6.00;99.90;;;;;;5053605;28;20261;-81
2021/10/22 06:53:11;;;;;;;0.10;0.10;;;6.10;99.90;;;;;;5055778;28;20190;-82
2021/10/22 06:55:37;;;;;;;0.20;0.20;;;6.20;99.90;;;;;;5045200;28;20207;-82
2021/10/22 06:58:04;;;;;;;0.10;0.10;;;6.30;99.90;;;;;;5036594;28;20202;-83
2021/10/22 07:00:30;;;;;;;0.10;0.10;;;6.30;99.90;;;;;;5034921;28;20261;-82
2021/10/22 07:02:56;;;;;;;0.80;0.63;;;6.40;99.90;;;;;;5049405;28;21303;-81
2021/10/22 07:07:14;;;;;;;0.50;0.50;;;6.40;99.90;;;;;;5049243;28;20195;-81
2021/10/22 07:08:13;;;;;;;1.77;0.60;;;6.60;99.90;;;;;;5042175;28;20697;-82
2021/10/22 07:10:39;;;;;;;8.03;0.53;;;6.70;99.90;;;;;;5055075;28;20185;-82
2021/10/22 07:13:06;;;;;;;0.10;0.10;;;6.70;99.90;;;;;;5043066;28;20192;-81
2021/10/22 07:15:31;;;;;;;0.20;0.20;;;6.80;99.90;;;;;;5048588;28;20289;-80
2021/10/22 07:17:59;;;;;;;0.90;0.50;;;6.90;99.90;;;;;;5057116;28;20291;-81
2021/10/22 07:20:28;;;;;;;0.47;0.30;;;6.90;99.90;;;;;;5060274;28;20181;-80
2021/10/22 07:23:02;;;;;;;0.40;0.40;;;7.00;99.90;;;;;;5061889;28;20215;-81
2021/10/22 07:25:28;;;;;;;0.30;0.30;;;7.00;99.90;;;;;;5063853;28;20181;-81
2021/10/22 07:27:53;;;;;;;0.40;0.20;;;7.10;99.90;;;;;;5056217;28;20208;-81
2021/10/22 07:30:19;;;;;;;0.47;0.47;;;7.20;99.90;;;;;;5058553;28;20201;-80
2021/10/22 07:32:47;;;;;;;0.30;0.30;;;7.20;99.90;;;;;;5062479;28;20288;-80
2021/10/22 07:35:14;;;;;;;0.10;0.10;;;7.30;99.90;;;;;;5051155;28;20198;-81
2021/10/22 07:37:39;;;;;;;0.10;0.10;;;7.40;99.90;;;;;;5060797;28;20196;-81
2021/10/22 07:40:06;;;;;;;0.30;0.30;;;7.50;99.90;;;;;;5066078;28;20549;-81
2021/10/22 07:42:33;;;;;;;0.37;0.30;;;7.80;99.90;;;;;;5061564;28;20188;-80
2021/10/22 07:45:00;;;;;;;0.93;0.33;;;8.00;99.90;;;;;;5067006;28;20265;-80
2021/10/22 07:47:33;;;;;;;0.40;0.40;;;8.10;99.90;;;;;;5056137;28;20271;-80
2021/10/22 07:50:00;;;;;;;0.20;0.20;;;8.30;99.90;;;;;;5052253;28;20166;-81
2021/10/22 07:52:28;;;;;;;0.80;0.80;;;8.40;99.90;;;;;;5057349;28;20218;-81
2021/10/22 07:54:57;;;;;;;0.43;0.43;;;8.40;99.90;;;;;;5058917;28;20189;-81
2021/10/22 07:57:23;;;;;;;4.57;0.93;;;8.50;99.90;;;;;;5056378;28;20723;-80
2021/10/22 07:59:50;;;;;;;0.63;0.63;;;8.30;99.90;;;;;;5060081;28;20184;-80
2021/10/22 08:02:16;;;;;;;1.80;0.20;;;8.50;99.90;;;;;;5053801;28;20804;-81
2021/10/22 08:04:47;;;;;;;0.10;0.10;;;8.50;99.90;;;;;;5048193;28;20581;-81
2021/10/22 08:07:16;;;;;;;0.50;0.30;;;8.50;99.90;;;;;;5044887;28;20209;-81
2021/10/22 08:09:43;;;;;;;0.17;0.17;;;8.60;99.90;;;;;;5047753;28;20205;-80
2021/10/22 08:12:11;;;;;;;0.10;0.10;;;8.70;99.90;;;;;;5044971;28;20620;-82
2021/10/22 08:14:36;;;;;;;0.00;0.00;;;8.70;99.90;;;;;;5037524;28;20197;-81
2021/10/22 08:17:03;;;;;;;0.20;0.20;;;8.80;99.90;;;;;;5042528;28;20770;-81
2021/10/22 08:19:29;;;;;;;0.10;0.10;;;8.90;99.90;;;;;;5050561;28;20189;-81
2021/10/22 08:24:23;;;;;;;0.13;0.13;;;8.90;99.90;;;;;;5053245;28;20182;-81
2021/10/22 08:26:49;;;;;;;0.10;0.10;;;9.00;99.90;;;;;;5069734;28;20587;-81
2021/10/22 08:29:15;;;;;;;0.00;0.00;;;9.10;99.90;;;;;;5051429;28;20189;-81
2021/10/22 08:31:41;;;;;;;0.20;0.20;;;9.20;99.90;;;;;;5055312;28;20207;-81
2021/10/22 08:34:06;;;;;;;0.27;0.27;;;9.20;99.90;;;;;;5057461;28;20264;-81
2021/10/22 08:36:32;;;;;;;3.13;0.30;;;9.50;99.90;;;;;;5062657;28;20205;-82
2021/10/22 08:38:57;;;;;;;0.10;0.10;;;9.60;99.90;;;;;;5046753;28;20710;-83
2021/10/22 08:41:23;;;;;;;0.40;0.33;;;9.70;99.90;;;;;;5053268;28;20179;-81
2021/10/22 08:43:52;;;;;;;2.10;0.63;;;9.80;99.90;;;;;;5046653;28;20178;-81
2021/10/22 08:46:22;;;;;;;0.53;0.53;;;9.90;99.90;;;;;;5038049;28;20283;-82
2021/10/22 08:48:49;;;;;;;1.17;1.00;;;9.90;99.90;;;;;;5050063;28;20203;-82
2021/10/22 08:51:18;;;;;;;0.60;0.60;;;10.00;99.90;;;;;;5042703;28;20187;-82
2021/10/22 08:53:48;;;;;;;0.10;0.10;;;10.10;99.90;;;;;;5040019;28;20579;-82
2021/10/22 08:56:15;;;;;;;0.33;0.33;;;10.10;99.90;;;;;;5042903;28;20227;-82
2021/10/22 08:58:41;;;;;;;0.27;0.27;;;10.20;99.90;;;;;;5046278;28;20215;-82
2021/10/22 09:01:07;;;;;;;0.27;0.27;;;10.30;99.90;;;;;;5050606;28;20231;-82
2021/10/22 09:03:40;;;;;;;0.30;0.30;;;10.30;99.90;;;;;;5046497;28;20174;-82
2021/10/22 09:06:13;;;;;;;0.10;0.10;;;10.40;99.90;;;;;;5042648;28;20262;-82
2021/10/22 09:08:42;;;;;;;0.20;0.20;;;10.40;99.90;;;;;;5051237;28;20700;-81
2021/10/22 09:11:25;;;;;;;1.90;0.70;;;10.30;99.90;;;;;;5054823;28;20192;-82
2021/10/22 09:14:20;;;;;;;0.63;0.27;;;10.40;99.90;;;;;;5040326;28;20184;-82
2021/10/22 09:16:49;;;;;;;0.10;0.10;;;10.50;99.90;;;;;;5047943;28;20208;-82
2021/10/22 09:19:36;;;;;;;0.80;0.80;;;10.50;99.90;;;;;;5067765;28;20185;-82
2021/10/22 09:22:30;;;;;;;0.10;0.10;;;10.50;99.90;;;;;;5054182;28;20185;-82
2021/10/22 09:25:00;;;;;;;0.20;0.20;;;10.40;99.90;;;;;;5055971;28;20174;-81
2021/10/22 09:27:42;;;;;;;0.10;0.10;;;10.50;99.90;;;;;;5052258;28;20205;-81
2021/10/22 09:30:41;;;;;;;0.20;0.20;;;10.50;99.90;;;;;;5050375;28;20201;-82
2021/10/22 09:33:19;;;;;;;1.50;0.63;;;10.60;99.90;;;;;;5080325;28;20183;-83
2021/10/22 09:35:46;;;;;;;0.10;0.10;;;10.80;99.90;;;;;;5055255;28;20615;-82
2021/10/22 09:38:18;;;;;;;0.27;0.27;;;10.80;99.90;;;;;;5069597;28;20208;-82
2021/10/22 09:40:58;;;;;;;0.30;0.30;;;10.80;99.90;;;;;;5057510;28;20176;-81
2021/10/22 09:43:36;;;;;;;0.20;0.20;;;11.00;99.90;;;;;;5045233;28;20264;-82
2021/10/22 09:46:18;;;;;;;0.20;0.20;;;11.20;99.90;;;;;;5049052;28;20544;-82
2021/10/22 09:48:50;;;;;;;0.10;0.10;;;11.30;99.90;;;;;;5049401;28;20671;-82
2021/10/22 09:51:21;;;;;;;0.30;0.30;;;11.40;99.90;;;;;;5053523;28;20184;-83
2021/10/22 09:53:48;;;;;;;0.23;0.23;;;11.30;99.90;;;;;;5057700;28;20187;-82
2021/10/22 09:56:27;;;;;;;3.40;2.17;;;11.30;99.90;;;;;;5047567;28;20233;-80
2021/10/22 09:59:04;;;;;;;0.20;0.20;;;11.60;99.90;;;;;;5060721;28;20203;-80
2021/10/22 10:01:52;;;;;;;0.10;0.10;;;11.80;99.90;;;;;;5056529;28;20287;-79
2021/10/22 10:04:18;;;;;;;0.40;0.10;;;12.00;99.90;;;;;;5056340;28;20245;-80
2021/10/22 10:06:44;;;;;;;0.10;0.10;;;12.10;99.90;;;;;;5044508;28;20906;-80
2021/10/22 10:09:12;;;;;;;0.27;0.27;;;12.20;99.90;;;;;;5076472;28;20187;-80
2021/10/22 10:11:40;;;;;;;0.43;0.40;;;12.10;99.90;;;;;;5046499;28;20192;-80
2021/10/22 10:14:06;;;;;;;0.90;0.47;;;12.10;99.90;;;;;;5045598;28;20269;-80
2021/10/22 10:16:34;;;;;;;0.20;0.20;;;11.90;99.90;;;;;;5044868;28;20677;-80
2021/10/22 10:19:07;;;;;;;0.30;0.30;;;12.30;99.90;;;;;;5057227;28;20202;-80
2021/10/22 10:21:39;;;;;;;0.20;0.20;;;12.10;99.90;;;;;;5047892;28;20205;-80
2021/10/22 10:24:05;;;;;;;0.10;0.10;;;12.20;99.90;;;;;;5047765;28;20182;-80
2021/10/22 10:26:33;;;;;;;0.07;0.07;;;12.30;99.90;;;;;;5049142;28;20188;-80
2021/10/22 10:29:01;;;;;;;0.50;0.50;;;12.00;99.90;;;;;;5055927;28;20218;-81
2021/10/22 10:31:40;;;;;;;0.30;0.30;;;12.10;99.90;;;;;;5059787;28;20256;-81
2021/10/22 10:34:43;;;;;;;0.10;0.10;;;12.10;99.90;;;;;;5052252;28;20260;-81
2021/10/22 10:37:29;;;;;;;0.50;0.50;;;11.90;99.90;;;;;;5038246;28;20810;-80
2021/10/22 10:39:57;;;;;;;0.10;0.10;;;12.20;99.90;;;;;;5047035;28;20200;-80
2021/10/22 10:42:46;;;;;;;0.10;0.10;;;12.20;99.90;;;;;;5049030;28;20280;-80
2021/10/22 10:45:21;;;;;;;0.57;0.10;;;12.20;99.90;;;;;;5054717;28;20188;-80
2021/10/22 10:48:13;;;;;;;0.10;0.10;;;12.30;99.90;;;;;;5062663;28;20206;-80
2021/10/22 10:51:09;;;;;;;0.20;0.20;;;12.40;99.90;;;;;;5055553;28;20188;-80
2021/10/22 10:53:38;;;;;;;0.20;0.20;;;12.50;99.90;;;;;;5055699;28;20553;-80
2021/10/22 10:56:32;;;;;;;0.10;0.10;;;12.70;99.90;;;;;;5054686;28;20204;-80
2021/10/22 10:58:58;;;;;;;0.30;0.30;;;12.80;99.90;;;;;;5043635;28;20273;-81
2021/10/22 11:01:34;;;;;;;0.40;0.40;;;12.70;99.90;;;;;;5043452;28;20181;-80
2021/10/22 11:04:01;;;;;;;0.00;0.00;;;12.70;99.90;;;;;;5065067;28;20181;-80
2021/10/22 11:06:41;;;;;;;0.00;0.00;;;12.60;99.90;;;;;;5055297;28;20644;-80
2021/10/22 11:09:07;;;;;;;5.20;0.77;;;12.70;99.90;;;;;;5050400;28;20185;-80
2021/10/22 11:11:38;;;;;;;0.20;0.20;;;12.60;99.90;;;;;;5047277;28;20637;-80
2021/10/22 11:14:04;;;;;;;0.10;0.10;;;12.60;99.90;;;;;;5049757;28;20182;-80
2021/10/22 11:16:41;;;;;;;0.10;0.10;;;12.80;99.90;;;;;;5053902;28;20256;-80
2021/10/22 11:19:11;;;;;;;0.27;0.27;;;13.00;99.90;;;;;;5056347;28;20230;-79
2021/10/22 11:21:44;;;;;;;0.00;0.00;;;12.90;99.90;;;;;;5054406;28;20213;-80
2021/10/22 11:24:15;;;;;;;0.10;0.10;;;12.90;99.90;;;;;;5052203;28;20183;-80
2021/10/22 11:26:41;;;;;;;0.00;0.00;;;12.60;99.90;;;;;;5046948;28;20197;-81
2021/10/22 11:29:18;;;;;;;0.10;0.10;;;12.70;99.90;;;;;;5059576;28;20194;-80
2021/10/22 11:31:57;;;;;;;2.43;0.83;;;12.70;99.90;;;;;;5052571;28;20207;-80
2021/10/22 11:34:32;;;;;;;3.20;0.40;;;12.70;99.90;;;;;;5046255;28;20647;-82
2021/10/22 11:37:09;;;;;;;0.20;0.20;;;13.00;99.90;;;;;;5048413;28;20210;-81
2021/10/22 11:39:42;;;;;;;0.20;0.20;;;12.70;99.90;;;;;;5044364;28;20174;-82
2021/10/22 11:42:11;;;;;;;3.20;0.43;;;12.60;99.90;;;;;;5040507;28;20208;-81
2021/10/22 11:44:46;;;;;;;0.10;0.10;;;12.30;99.90;;;;;;5039431;28;20180;-82
2021/10/22 11:47:12;;;;;;;0.20;0.20;;;12.20;99.90;;;;;;5084850;28;20238;-81
2021/10/22 11:49:39;;;;;;;0.10;0.10;;;12.00;99.90;;;;;;5059227;28;20178;-81
2021/10/22 11:52:07;;;;;;;0.23;0.23;;;11.90;99.90;;;;;;5043610;28;20187;-81
2021/10/22 11:54:52;;;;;;;0.30;0.30;;;11.90;99.90;;;;;;5062244;28;20612;-81
2021/10/22 11:57:20;;;;;;;0.33;0.33;;;11.90;99.90;;;;;;5056187;28;20209;-82
2021/10/22 11:59:58;;;;;;;0.10;0.10;;;12.00;99.90;;;;;;5057248;28;20272;-81
2021/10/22 12:02:29;;;;;;;0.10;0.10;;;11.90;99.90;;;;;;5052455;28;20185;-81
2021/10/22 12:05:04;;;;;;;1.07;0.40;;;11.90;99.90;;;;;;5047157;28;20195;-81
2021/10/22 12:07:36;;;;;;;1.90;0.40;;;12.00;99.90;;;;;;5057364;28;20204;-81
2021/10/22 12:10:04;;;;;;;2.63;0.73;;;11.90;99.90;;;;;;5054074;28;20224;-82
2021/10/22 12:12:38;;;;;;;0.20;0.20;;;11.90;99.90;;;;;;5052443;28;20684;-81
2021/10/22 12:15:05;;;;;;;0.43;0.10;;;12.00;99.90;;;;;;5051162;28;20184;-82
2021/10/22 12:17:31;;;;;;;0.30;0.30;;;11.90;99.90;;;;;;5059741;28;20207;-81
2021/10/22 12:19:59;;;;;;;0.00;0.00;;;11.90;99.90;;;;;;5059522;28;20187;-81
2021/10/22 12:22:26;;;;;;;1.23;0.23;;;12.00;99.90;;;;;;5056491;28;20209;-82
2021/10/22 12:24:55;;;;;;;0.10;0.10;;;12.10;99.90;;;;;;5056844;28;20542;-82
2021/10/22 12:27:25;;;;;;;0.20;0.20;;;12.00;99.90;;;;;;5038804;28;20339;-82
2021/10/22 12:29:58;;;;;;;0.10;0.10;;;12.00;99.90;;;;;;5051678;28;20484;-81
2021/10/22 12:32:32;;;;;;;0.10;0.10;;;11.90;99.90;;;;;;5053703;28;20188;-81
2021/10/22 12:34:58;;;;;;;1.90;0.63;;;11.80;99.90;;;;;;5048119;28;20583;-82
2021/10/22 12:37:44;;;;;;;0.10;0.10;;;12.00;99.90;;;;;;5058712;28;20340;-82
2021/10/22 12:40:17;;;;;;;0.10;0.10;;;12.20;99.90;;;;;;5045997;28;20185;-81
2021/10/22 12:42:42;;;;;;;0.20;0.20;;;12.20;99.90;;;;;;5047620;28;20181;-82
2021/10/22 12:45:24;;;;;;;0.27;0.27;;;12.40;99.90;;;;;;5060289;28;20243;-82
2021/10/22 12:47:51;;;;;;;0.20;0.20;;;12.50;99.90;;;;;;5052354;28;20202;-81
2021/10/22 12:50:25;;;;;;;0.20;0.20;;;12.50;99.90;;;;;;5047645;28;20192;-81
2021/10/22 12:52:59;;;;;;;0.20;0.20;;;12.50;99.90;;;;;;5063022;28;20186;-82
2021/10/22 12:55:27;;;;;;;0.87;0.40;;;12.40;99.90;;;;;;5051470;28;20209;-82
2021/10/22 12:58:13;;;;;;;0.30;0.30;;;12.20;99.90;;;;;;5058315;28;20281;-82
2021/10/22 13:00:40;;;;;;;0.10;0.10;;;12.10;99.90;;;;;;5066982;28;20177;-82
2021/10/22 13:03:06;;;;;;;0.73;0.30;;;12.10;99.90;;;;;;5065907;28;20179;-81
2021/10/22 13:05:35;;;;;;;2.13;0.37;;;12.10;99.90;;;;;;5064560;28;20205;-82